^^
Your Local Weather - Clay, NY Station Historical Data
Daily Summary for April 28, 2017 Units:  Metric    English   Both
« Previous Day
Next Day »
Daily Weekly Monthly Yearly Custom
  High: Low: Average:
Temperature: 22.2 °C 12.4 °C 16.8 °C
Dew Point: 16.8 °C 6.2 °C 9.1 °C
Humidity: 91% 36% 62%
Wind Speed: 6.4km/h 0km/h 2.4km/h
Wind Gust: 11.3km/h - -
Wind- - West
Pressure: 1015.1 hPa 1005.3 hPa -
Precipitation: 2.54 mm    
Historical Graphs
 
 
Tabular Data for April 28, 2017
Time Temperature Dew Point Pressure Wind Wind Speed Wind Gust Humidity Rainfall Rate (Hourly) solar
00:00 19.9 °C 16.8 °C 1005.3 hPa Calm   1.6 km/h 82% 1.02 mm 0 W/m2
00:06 19.8 °C 16.8 °C 1005.6 hPa SW 1.6 km/h 3.2 km/h 83% 1.02 mm 0 W/m2
00:12 19.3 °C 16.4 °C 1006 hPa NNW 3.2 km/h 6.4 km/h 83% 1.78 mm 0 W/m2
00:18 18.5 °C 15.6 °C 1006 hPa NW 4.8 km/h 6.4 km/h 83% 1.78 mm 0 W/m2
00:24 18.1 °C 15.3 °C 1006.3 hPa NW 3.2 km/h 4.8 km/h 84% 1.27 mm 0 W/m2
00:30 17.8 °C 15.2 °C 1006 hPa NW 1.6 km/h 1.6 km/h 85% 2.79 mm 0 W/m2
00:36 17.6 °C 15.2 °C 1005.6 hPa NW 1.6 km/h 3.2 km/h 86% 1.52 mm 0 W/m2
00:42 17.4 °C 15 °C 1006 hPa NW 1.6 km/h 1.6 km/h 86% 1.02 mm 0 W/m2
00:48 17.3 °C 15.1 °C 1005.6 hPa Calm   3.2 km/h 87% 0 mm 0 W/m2
00:54 17.2 °C 15.1 °C 1006 hPa Calm   3.2 km/h 87% 0 mm 0 W/m2
01:00 17.2 °C 15.2 °C 1006.3 hPa Calm     88% 0 mm 0 W/m2
01:06 17.1 °C 15.2 °C 1006.7 hPa Calm     89% 0 mm 0 W/m2
01:12 17.1 °C 15.2 °C 1006.7 hPa Calm     89% 0 mm 0 W/m2
01:18 17 °C 15.2 °C 1006.7 hPa Calm     89% 0 mm 0 W/m2
01:24 17 °C 15.2 °C 1006.7 hPa Calm     89% 0 mm 0 W/m2
01:30 16.9 °C 15.1 °C 1006.7 hPa Calm     89% 0 mm 0 W/m2
01:36 16.9 °C 15.3 °C 1007 hPa Calm     90% 0 mm 0 W/m2
01:42 16.9 °C 15.2 °C 1007 hPa Calm     90% 16.51 mm 0 W/m2
01:48 16.8 °C 15.2 °C 1007 hPa Calm     90% 6.1 mm 0 W/m2
01:54 16.8 °C 15.1 °C 1007 hPa Calm     90% 2.29 mm 0 W/m2
02:00 16.7 °C 15 °C 1007 hPa Calm     90% 1.27 mm 0 W/m2
02:06 16.7 °C 15 °C 1007.3 hPa Calm     90% 0 mm 0 W/m2
02:12 16.7 °C 15 °C 1007.3 hPa Calm     90% 0 mm 0 W/m2
02:18 16.6 °C 14.9 °C 1007.3 hPa Calm     90% 0 mm 0 W/m2
02:24 16.6 °C 14.9 °C 1007.7 hPa Calm     90% 0 mm 0 W/m2
02:30 16.6 °C 15.1 °C 1008 hPa Calm     91% 0 mm 0 W/m2
02:36 16.6 °C 15.1 °C 1008 hPa Calm     91% 0 mm 0 W/m2
02:42 16.5 °C 14.8 °C 1008 hPa WSW 1.6 km/h 4.8 km/h 90% 0 mm 0 W/m2
02:48 16.3 °C 14.6 °C 1008 hPa NW 1.6 km/h 4.8 km/h 90% 0 mm 0 W/m2
02:54 16.1 °C 14.1 °C 1008.4 hPa NW 1.6 km/h 6.4 km/h 88% 0 mm 0 W/m2
03:00 15.9 °C 13.9 °C 1008.4 hPa NW 1.6 km/h 1.6 km/h 88% 0 mm 0 W/m2
03:06 15.9 °C 13.9 °C 1008.7 hPa Calm   1.6 km/h 88% 0 mm 0 W/m2
03:12 15.8 °C 13.8 °C 1009 hPa Calm   1.6 km/h 88% 0 mm 0 W/m2
03:18 15.7 °C 13.3 °C 1009 hPa West 1.6 km/h 4.8 km/h 86% 0 mm 0 W/m2
03:24 15.6 °C 13.3 °C 1009 hPa West 3.2 km/h 3.2 km/h 86% 0 mm 0 W/m2
03:29 15.6 °C 13.1 °C 1009 hPa WSW 1.6 km/h 4.8 km/h 85% 0 mm 0 W/m2
03:36 15.4 °C 12.8 °C 1009 hPa WNW 1.6 km/h 4.8 km/h 84% 0 mm 0 W/m2
03:42 15.3 °C 11.3 °C 1009.4 hPa WSW 4.8 km/h 11.3 km/h 77% 0 mm 0 W/m2
03:48 15.2 °C 10.8 °C 1009.4 hPa West 4.8 km/h 11.3 km/h 75% 0 mm 0 W/m2
03:54 15.1 °C 10.3 °C 1009.4 hPa West 6.4 km/h 6.4 km/h 73% 0 mm 0 W/m2
04:00 14.9 °C 10.2 °C 1009.7 hPa WNW 4.8 km/h 4.8 km/h 73% 0 mm 0 W/m2
04:06 14.7 °C 10.1 °C 1009.7 hPa NW 3.2 km/h 4.8 km/h 74% 0 mm 0 W/m2
04:12 14.6 °C 10 °C 1009.7 hPa SW 1.6 km/h 1.6 km/h 74% 0 mm 0 W/m2
04:18 14.3 °C 9.6 °C 1010 hPa West 1.6 km/h 9.7 km/h 73% 0 mm 0 W/m2
04:24 14.3 °C 8.9 °C 1010 hPa West 4.8 km/h 4.8 km/h 70% 0 mm 0 W/m2
04:30 14.2 °C 8.8 °C 1010 hPa WNW 4.8 km/h 4.8 km/h 70% 0 mm 0 W/m2
04:36 14.1 °C 8.7 °C 1010 hPa WNW 3.2 km/h 4.8 km/h 70% 0 mm 0 W/m2
04:42 13.8 °C 8.7 °C 1010 hPa SW 1.6 km/h 1.6 km/h 71% 0 mm 0 W/m2
04:48 13.8 °C 8.4 °C 1010 hPa West 3.2 km/h 3.2 km/h 70% 0 mm 0 W/m2
04:54 13.7 °C 8.1 °C 1010 hPa WNW 3.2 km/h 8 km/h 69% 0 mm 0 W/m2
05:00 13.6 °C 8 °C 1010.4 hPa WNW 4.8 km/h 4.8 km/h 69% 0 mm 0 W/m2
05:06 13.6 °C 7.8 °C 1010.7 hPa WSW 4.8 km/h 6.4 km/h 68% 0 mm 0 W/m2
05:12 13.4 °C 7.9 °C 1010.7 hPa SW 4.8 km/h 4.8 km/h 69% 0 mm 0 W/m2
05:18 13.3 °C 8 °C 1010.7 hPa WSW 3.2 km/h 4.8 km/h 70% 0 mm 0 W/m2
05:24 13.3 °C 7.9 °C 1010.7 hPa SSW 3.2 km/h 6.4 km/h 70% 0 mm 0 W/m2
05:30 13.3 °C 7.9 °C 1011.1 hPa NW 3.2 km/h 4.8 km/h 70% 0 mm 0 W/m2
05:36 13.3 °C 7.7 °C 1011.4 hPa West 3.2 km/h 4.8 km/h 69% 0 mm 0 W/m2
05:42 13.3 °C 7.6 °C 1011.4 hPa WNW 3.2 km/h 6.4 km/h 68% 0 mm 0 W/m2
05:48 13.2 °C 7.4 °C 1011.7 hPa SW 3.2 km/h 6.4 km/h 68% 0 mm 0 W/m2
05:54 13.1 °C 7.5 °C 1011.7 hPa WNW 3.2 km/h 6.4 km/h 69% 0 mm 0 W/m2
06:00 12.9 °C 7.4 °C 1011.7 hPa SW 4.8 km/h 4.8 km/h 69% 0 mm 0 W/m2
06:06 12.8 °C 7.3 °C 1011.7 hPa West 4.8 km/h 6.4 km/h 69% 0 mm 0 W/m2
06:12 12.7 °C 7.2 °C 1012.1 hPa WSW 3.2 km/h 8 km/h 69% 0 mm 5 W/m2
06:18 12.7 °C 7.1 °C 1012.1 hPa SW 3.2 km/h 8 km/h 69% 0 mm 9 W/m2
06:24 12.6 °C 7.2 °C 1012.4 hPa West 3.2 km/h 3.2 km/h 70% 0 mm 11 W/m2
06:30 12.4 °C 7.1 °C 1012.4 hPa WSW 1.6 km/h 1.6 km/h 70% 0 mm 12 W/m2
06:35 12.4 °C 6.9 °C 1012.4 hPa West 3.2 km/h 9.7 km/h 69% 0 mm 21 W/m2
06:42 12.4 °C 6.9 °C 1012.8 hPa West 3.2 km/h 3.2 km/h 69% 0 mm 32 W/m2
06:48 12.5 °C 6.9 °C 1012.8 hPa WSW 1.6 km/h 3.2 km/h 69% 0 mm 60 W/m2
06:54 12.6 °C 7 °C 1012.8 hPa Calm   1.6 km/h 69% 0 mm 91 W/m2
07:00 12.8 °C 7.4 °C 1012.8 hPa Calm     70% 0 mm 132 W/m2
07:05 12.9 °C 7.2 °C 1013.1 hPa WNW 1.6 km/h 1.6 km/h 68% 0 mm 148 W/m2
07:12 13.1 °C 7.3 °C 1013.1 hPa WSW 1.6 km/h 3.2 km/h 68% 0 mm 163 W/m2
07:18 13.3 °C 7.6 °C 1013.1 hPa Calm   4.8 km/h 68% 0 mm 183 W/m2
07:24 13.4 °C 7.7 °C 1013.1 hPa Calm   1.6 km/h 68% 0 mm 200 W/m2
07:30 13.6 °C 7.3 °C 1013.4 hPa SW 1.6 km/h 3.2 km/h 66% 0 mm 218 W/m2
07:36 13.6 °C 7.3 °C 1013.4 hPa WSW 3.2 km/h 6.4 km/h 66% 0 mm 237 W/m2
07:42 13.7 °C 7.5 °C 1013.4 hPa West 3.2 km/h 3.2 km/h 66% 0 mm 255 W/m2
07:48 13.8 °C 7.6 °C 1013.4 hPa West 3.2 km/h 6.4 km/h 66% 0 mm 272 W/m2
07:54 13.9 °C 7.2 °C 1013.4 hPa WSW 3.2 km/h 8 km/h 64% 0 mm 290 W/m2
08:00 13.9 °C 7.2 °C 1013.4 hPa WSW 3.2 km/h 3.2 km/h 64% 0 mm 264 W/m2
08:06 14 °C 7.1 °C 1013.4 hPa West 3.2 km/h 9.7 km/h 63% 0 mm 323 W/m2
08:12 14.1 °C 7.4 °C 1013.4 hPa NNW 3.2 km/h 4.8 km/h 64% 0 mm 348 W/m2
08:18 14.2 °C 7 °C 1013.8 hPa SW 3.2 km/h 9.7 km/h 62% 0 mm 346 W/m2
08:24 14.3 °C 7.3 °C 1013.8 hPa NW 3.2 km/h 6.4 km/h 63% 0 mm 348 W/m2
08:30 14.3 °C 6.9 °C 1013.8 hPa SW 3.2 km/h 3.2 km/h 61% 0 mm 376 W/m2
08:36 14.4 °C 7 °C 1013.8 hPa WSW 4.8 km/h 4.8 km/h 61% 0 mm 369 W/m2
08:42 14.4 °C 7 °C 1014.1 hPa WNW 4.8 km/h 6.4 km/h 61% 0 mm 445 W/m2
08:48 14.6 °C 6.9 °C 1014.4 hPa WNW 4.8 km/h 9.7 km/h 60% 0 mm 450 W/m2
08:54 14.6 °C 6.9 °C 1014.4 hPa WSW 4.8 km/h 6.4 km/h 60% 0 mm 464 W/m2
09:00 14.7 °C 7.2 °C 1014.8 hPa NW 3.2 km/h 6.4 km/h 61% 0 mm 501 W/m2
09:06 14.9 °C 7.2 °C 1014.8 hPa WSW 3.2 km/h 9.7 km/h 60% 0 mm 520 W/m2
09:12 15.2 °C 7.2 °C 1014.8 hPa WNW 3.2 km/h 3.2 km/h 59% 0 mm 520 W/m2
09:18 15.1 °C 6.8 °C 1014.8 hPa NNW 4.8 km/h 4.8 km/h 58% 0 mm 515 W/m2
09:24 15.1 °C 7.2 °C 1015.1 hPa SW 4.8 km/h 9.7 km/h 59% 0 mm 571 W/m2
09:29 15.3 °C 7.3 °C 1015.1 hPa WSW 4.8 km/h 4.8 km/h 59% 0 mm 420 W/m2
09:36 15.3 °C 7.1 °C 1015.1 hPa WSW 4.8 km/h 4.8 km/h 58% 0 mm 529 W/m2
09:42 15.2 °C 7 °C 1015.1 hPa WNW 3.2 km/h 4.8 km/h 58% 0 mm 606 W/m2
09:48 15.4 °C 6.7 °C 1015.1 hPa NW 4.8 km/h 8 km/h 56% 0 mm 670 W/m2
09:54 15.7 °C 7.2 °C 1015.1 hPa SW 4.8 km/h 9.7 km/h 57% 0 mm 661 W/m2
10:00 15.9 °C 7.9 °C 1015.1 hPa NW 3.2 km/h 3.2 km/h 59% 0 mm 679 W/m2
10:06 16.1 °C 7.6 °C 1015.1 hPa WNW 3.2 km/h 4.8 km/h 57% 0 mm 652 W/m2
10:12 16.1 °C 7.3 °C 1015.1 hPa SW 3.2 km/h 8 km/h 56% 0 mm 728 W/m2
10:18 16.2 °C 6.9 °C 1015.1 hPa West 3.2 km/h 8 km/h 54% 0 mm 705 W/m2
10:23 16.2 °C 7.2 °C 1014.8 hPa NW 3.2 km/h 4.8 km/h 55% 0 mm 745 W/m2
10:30 16.6 °C 7.2 °C 1015.1 hPa SW 1.6 km/h 1.6 km/h 54% 0 mm 761 W/m2
10:36 16.3 °C 6.9 °C 1014.8 hPa WSW 3.2 km/h 4.8 km/h 54% 0 mm 779 W/m2
10:42 16.3 °C 7.7 °C 1014.8 hPa NW 4.8 km/h 4.8 km/h 57% 0 mm 789 W/m2
10:48 16.6 °C 8 °C 1014.8 hPa WNW 3.2 km/h 4.8 km/h 57% 0 mm 803 W/m2
10:54 16.6 °C 6.9 °C 1014.8 hPa NNW 3.2 km/h 6.4 km/h 53% 0 mm 812 W/m2
11:00 16.5 °C 7.7 °C 1015.1 hPa SW 4.8 km/h 4.8 km/h 56% 0 mm 824 W/m2
11:06 16.8 °C 7.2 °C 1015.1 hPa SW 3.2 km/h 9.7 km/h 53% 0 mm 840 W/m2
11:12 17.1 °C 8 °C 1014.8 hPa NW 3.2 km/h 6.4 km/h 55% 0 mm 846 W/m2
11:18 17.4 °C 7.7 °C 1014.8 hPa West 3.2 km/h 6.4 km/h 53% 0 mm 842 W/m2
11:24 16.9 °C 7.3 °C 1014.8 hPa WSW 4.8 km/h 4.8 km/h 53% 0 mm 863 W/m2
11:30 17.6 °C 7.6 °C 1015.1 hPa WSW 3.2 km/h 6.4 km/h 52% 0 mm 872 W/m2
11:36 17.1 °C 7.1 °C 1014.8 hPa SSW 3.2 km/h 8 km/h 52% 0 mm 875 W/m2
11:42 17.1 °C 6.9 °C 1014.8 hPa West 4.8 km/h 4.8 km/h 51% 0 mm 881 W/m2
11:48 17.6 °C 8.9 °C 1014.8 hPa WSW 3.2 km/h 8 km/h 57% 0 mm 886 W/m2
11:54 17.6 °C 7 °C 1014.8 hPa WSW 4.8 km/h 8 km/h 50% 0 mm 893 W/m2
12:00 18 °C 7.1 °C 1014.8 hPa SW 3.2 km/h 8 km/h 49% 0 mm 898 W/m2
12:06 18.1 °C 6.9 °C 1014.4 hPa WNW 4.8 km/h 8 km/h 48% 0 mm 905 W/m2
12:12 18.4 °C 7.8 °C 1014.4 hPa NW 3.2 km/h 4.8 km/h 50% 0 mm 933 W/m2
12:18 17.7 °C 6.6 °C 1014.4 hPa SW 3.2 km/h 4.8 km/h 48% 0 mm 745 W/m2
12:24 17.7 °C 8 °C 1014.4 hPa NW 1.6 km/h 4.8 km/h 53% 0 mm 939 W/m2
12:30 18.4 °C 8.1 °C 1014.4 hPa NW 1.6 km/h 4.8 km/h 51% 0 mm 921 W/m2
12:36 18.6 °C 6.7 °C 1014.4 hPa Calm   4.8 km/h 46% 0 mm 918 W/m2
12:42 18.8 °C 6.6 °C 1014.4 hPa WSW 1.6 km/h 3.2 km/h 45% 0 mm 925 W/m2
12:48 18.8 °C 6.9 °C 1014.1 hPa WSW 3.2 km/h 4.8 km/h 46% 0 mm 928 W/m2
12:54 19.1 °C 7.2 °C 1014.1 hPa WSW 3.2 km/h 9.7 km/h 46% 0 mm 935 W/m2
12:59 19 °C 7.4 °C 1014.1 hPa WNW 3.2 km/h 9.7 km/h 47% 0 mm 976 W/m2
13:06 18.8 °C 6.6 °C 1014.1 hPa South 3.2 km/h 9.7 km/h 45% 0 mm 735 W/m2
13:12 18.9 °C 6.7 °C 1014.1 hPa WSW 3.2 km/h 8 km/h 45% 0 mm 809 W/m2
13:18 19.2 °C 7.3 °C 1014.1 hPa WNW 3.2 km/h 8 km/h 46% 0 mm 1018 W/m2
13:23 18.8 °C 6.3 °C 1014.1 hPa NW 1.6 km/h 8 km/h 44% 0 mm 306 W/m2
13:30 18.8 °C 6.6 °C 1014.4 hPa West 3.2 km/h 3.2 km/h 45% 0 mm 371 W/m2
13:36 18.9 °C 7.1 °C 1014.4 hPa WSW 1.6 km/h 3.2 km/h 46% 0 mm 320 W/m2
13:42 18.7 °C 6.2 °C 1014.4 hPa WSW 3.2 km/h 3.2 km/h 44% 0 mm 327 W/m2
13:48 19.2 °C 8.8 °C 1014.1 hPa NW 3.2 km/h 4.8 km/h 51% 0 mm 1041 W/m2
13:54 19.4 °C 7.8 °C 1013.8 hPa NE 3.2 km/h 3.2 km/h 47% 0 mm 954 W/m2
14:00 19.2 °C 6.7 °C 1014.1 hPa WSW 3.2 km/h 3.2 km/h 44% 0 mm 448 W/m2
14:06 19.3 °C 6.7 °C 1014.4 hPa WSW 1.6 km/h 4.8 km/h 44% 0 mm 754 W/m2
14:12 19.9 °C 8.6 °C 1014.1 hPa NNW 1.6 km/h 8 km/h 48% 0 mm 939 W/m2
14:18 20.5 °C 7.8 °C 1014.4 hPa NW 3.2 km/h 8 km/h 44% 0 mm 1034 W/m2
14:24 20.6 °C 8.3 °C 1014.4 hPa WNW 3.2 km/h 4.8 km/h 45% 0 mm 830 W/m2
14:30 21.1 °C 9.1 °C 1014.4 hPa WNW 1.6 km/h 1.6 km/h 46% 0 mm 1034 W/m2
14:36 21 °C 9.3 °C 1014.4 hPa West 3.2 km/h 3.2 km/h 47% 0 mm 666 W/m2
14:42 20.4 °C 8.1 °C 1014.4 hPa NNW 3.2 km/h 3.2 km/h 45% 0 mm 283 W/m2
14:48 20.7 °C 9.3 °C 1014.4 hPa WNW 3.2 km/h 6.4 km/h 48% 0 mm 768 W/m2
14:54 20.9 °C 6.8 °C 1014.1 hPa West 1.6 km/h 3.2 km/h 40% 0 mm 636 W/m2
15:00 21.2 °C 7.7 °C 1014.1 hPa North 1.6 km/h 4.8 km/h 42% 0 mm 724 W/m2
15:06 20.9 °C 8.2 °C 1014.1 hPa WNW 3.2 km/h 4.8 km/h 44% 0 mm 471 W/m2
15:12 20.6 °C 6.6 °C 1014.1 hPa WSW 1.6 km/h 3.2 km/h 40% 0 mm 673 W/m2
15:18 20.9 °C 6.4 °C 1014.1 hPa North 3.2 km/h 6.4 km/h 39% 0 mm 445 W/m2
15:24 20.8 °C 9.1 °C 1014.1 hPa North 1.6 km/h 3.2 km/h 47% 0 mm 548 W/m2
15:30 21.1 °C 6.9 °C 1013.8 hPa WSW 3.2 km/h 3.2 km/h 40% 0 mm 501 W/m2
15:36 21.5 °C 8.1 °C 1013.8 hPa WSW 3.2 km/h 3.2 km/h 42% 0 mm 533 W/m2
15:42 20.9 °C 8.6 °C 1013.8 hPa NW 3.2 km/h 4.8 km/h 45% 0 mm 399 W/m2
15:48 21.4 °C 9.9 °C 1013.8 hPa NW 1.6 km/h 4.8 km/h 48% 0 mm 608 W/m2
15:54 21.9 °C 8.7 °C 1013.8 hPa NW 1.6 km/h 4.8 km/h 43% 0 mm 568 W/m2
16:00 21.8 °C 7.2 °C 1013.4 hPa NW 1.6 km/h 1.6 km/h 39% 0 mm 397 W/m2
16:06 21.6 °C 7.4 °C 1013.4 hPa WSW 1.6 km/h 3.2 km/h 40% 0 mm 499 W/m2
16:12 21.9 °C 6.9 °C 1013.4 hPa West 1.6 km/h 1.6 km/h 38% 0 mm 439 W/m2
16:18 22.1 °C 8.2 °C 1013.4 hPa WSW 1.6 km/h 3.2 km/h 41% 0 mm 394 W/m2
16:24 21.9 °C 6.2 °C 1013.8 hPa WSW 1.6 km/h 4.8 km/h 36% 0 mm 285 W/m2
16:29 21.8 °C 7.2 °C 1013.8 hPa NNW 3.2 km/h 3.2 km/h 39% 0 mm 297 W/m2
16:36 21.7 °C 8.2 °C 1013.4 hPa NW 1.6 km/h 6.4 km/h 42% 0 mm 299 W/m2
16:42 21.6 °C 7.8 °C 1013.4 hPa NW 1.6 km/h 1.6 km/h 41% 0 mm 408 W/m2
16:48 21.8 °C 8 °C 1013.4 hPa WNW 1.6 km/h 6.4 km/h 41% 0 mm 364 W/m2
16:53 22.1 °C 6.7 °C 1013.1 hPa West 1.6 km/h 3.2 km/h 37% 0 mm 432 W/m2
17:00 22.1 °C 7.5 °C 1013.1 hPa SW 1.6 km/h 4.8 km/h 39% 0 mm 387 W/m2
17:06 22.2 °C 7.9 °C 1013.1 hPa South 3.2 km/h 4.8 km/h 40% 0 mm 476 W/m2
17:12 22.1 °C 8.9 °C 1013.1 hPa NNW 3.2 km/h 8 km/h 43% 0 mm 533 W/m2
17:18 21.4 °C 8.3 °C 1013.1 hPa NNW 4.8 km/h 9.7 km/h 43% 0 mm 424 W/m2
17:23 21.3 °C 9.6 °C 1013.4 hPa NNW 6.4 km/h 8 km/h 47% 0 mm 445 W/m2
17:30 21.2 °C 8.4 °C 1013.4 hPa North 4.8 km/h 4.8 km/h 44% 0 mm 209 W/m2
17:36 21.2 °C 8.8 °C 1013.4 hPa NNW 4.8 km/h 8 km/h 45% 0 mm 267 W/m2
17:42 21.2 °C 8.8 °C 1013.4 hPa NW 3.2 km/h 6.4 km/h 45% 0 mm 172 W/m2
17:48 21.1 °C 9 °C 1013.4 hPa NNW 3.2 km/h 6.4 km/h 46% 0 mm 155 W/m2
17:54 21.1 °C 8.7 °C 1013.4 hPa NNW 3.2 km/h 3.2 km/h 45% 0 mm 125 W/m2
18:00 20.9 °C 9.2 °C 1013.4 hPa NNW 3.2 km/h 4.8 km/h 47% 0 mm 111 W/m2
18:05 20.4 °C 9.1 °C 1013.4 hPa North 4.8 km/h 11.3 km/h 48% 0 mm 151 W/m2
18:12 20.2 °C 8.8 °C 1013.4 hPa NW 4.8 km/h 9.7 km/h 48% 0 mm 135 W/m2
18:18 20 °C 8.9 °C 1013.4 hPa NNE 6.4 km/h 9.7 km/h 49% 0 mm 113 W/m2
18:24 19.9 °C 9.2 °C 1013.8 hPa North 6.4 km/h 9.7 km/h 50% 0 mm 95 W/m2
18:30 19.5 °C 8.8 °C 1013.8 hPa NNE 6.4 km/h 6.4 km/h 50% 0 mm 67 W/m2
18:36 18.9 °C 8.6 °C 1013.8 hPa NNW 6.4 km/h 11.3 km/h 51% 0 mm 67 W/m2
18:42 18.6 °C 8.8 °C 1014.1 hPa NNW 6.4 km/h 8 km/h 53% 0 mm 88 W/m2
18:48 18.3 °C 8.6 °C 1014.1 hPa North 6.4 km/h 8 km/h 53% 0 mm 63 W/m2
18:54 18.2 °C 8.5 °C 1014.1 hPa NNW 4.8 km/h 6.4 km/h 53% 0 mm 67 W/m2
19:00 18.1 °C 8.4 °C 1014.1 hPa North 3.2 km/h 3.2 km/h 53% 0 mm 62 W/m2
19:06 17.9 °C 8.2 °C 1014.1 hPa North 3.2 km/h 8 km/h 53% 0 mm 37 W/m2
19:12 17.8 °C 8.4 °C 1014.1 hPa NNW 4.8 km/h 6.4 km/h 54% 0 mm 26 W/m2
19:18 17.7 °C 8.5 °C 1014.1 hPa North 3.2 km/h 6.4 km/h 55% 0 mm 19 W/m2
19:24 17.6 °C 8.4 °C 1014.1 hPa North 1.6 km/h 3.2 km/h 55% 0 mm 19 W/m2
19:30 17.4 °C 8.1 °C 1014.1 hPa North 1.6 km/h 4.8 km/h 54% 0 mm 16 W/m2
19:36 17.3 °C 8.4 °C 1014.4 hPa North 1.6 km/h 4.8 km/h 56% 0 mm 12 W/m2
19:42 17.2 °C 8.4 °C 1014.1 hPa North 1.6 km/h 1.6 km/h 56% 0 mm 11 W/m2
19:48 17 °C 8.7 °C 1014.4 hPa North 1.6 km/h 4.8 km/h 58% 0 mm 9 W/m2
19:54 16.8 °C 8.5 °C 1014.1 hPa North 1.6 km/h 3.2 km/h 58% 0 mm 5 W/m2
20:00 16.8 °C 8.4 °C 1014.1 hPa Calm     58% 0 mm 0 W/m2
20:06 16.7 °C 8.6 °C 1014.1 hPa Calm     59% 0 mm 0 W/m2
20:12 16.6 °C 8.5 °C 1014.1 hPa Calm     59% 0 mm 0 W/m2
20:18 16.4 °C 8.6 °C 1014.1 hPa Calm   1.6 km/h 60% 0 mm 0 W/m2
20:24 16.3 °C 8.8 °C 1014.1 hPa Calm     61% 0 mm 0 W/m2
20:30 16.2 °C 8.7 °C 1014.4 hPa Calm     61% 0 mm 0 W/m2
20:36 16.2 °C 8.4 °C 1014.1 hPa Calm     60% 0 mm 0 W/m2
20:42 16 °C 8.5 °C 1014.4 hPa Calm     61% 0 mm 0 W/m2
20:48 15.9 °C 8.4 °C 1014.4 hPa Calm     61% 0 mm 0 W/m2
20:53 15.8 °C 8.6 °C 1014.4 hPa Calm     62% 0 mm 0 W/m2
21:00 15.7 °C 8.4 °C 1014.4 hPa Calm     62% 0 mm 0 W/m2
21:06 15.6 °C 8.6 °C 1014.4 hPa Calm     63% 0 mm 0 W/m2
21:12 15.4 °C 8.7 °C 1014.1 hPa Calm     64% 0 mm 0 W/m2
21:18 15.2 °C 8.7 °C 1014.4 hPa Calm     65% 0 mm 0 W/m2
21:24 15.1 °C 8.6 °C 1014.1 hPa Calm     65% 0 mm 0 W/m2
21:30 14.9 °C 8.6 °C 1014.4 hPa Calm     66% 0 mm 0 W/m2
21:36 14.7 °C 8.6 °C 1014.4 hPa Calm     67% 0 mm 0 W/m2
21:42 14.2 °C 8.6 °C 1014.4 hPa Calm     69% 0 mm 0 W/m2
21:48 14.1 °C 8.7 °C 1014.4 hPa Calm     70% 0 mm 0 W/m2
21:54 14 °C 8.6 °C 1014.4 hPa Calm     70% 0 mm 0 W/m2
22:00 13.9 °C 8.8 °C 1014.4 hPa Calm     71% 0 mm 0 W/m2
22:06 14.1 °C 9.1 °C 1014.4 hPa Calm     72% 0 mm 0 W/m2
22:12 14.1 °C 9.1 °C 1014.4 hPa Calm   1.6 km/h 72% 0 mm 0 W/m2
22:18 14.2 °C 9.4 °C 1014.4 hPa Calm   3.2 km/h 73% 0 mm 0 W/m2
22:24 14.3 °C 9.7 °C 1014.4 hPa Calm   1.6 km/h 74% 0 mm 0 W/m2
22:30 14.3 °C 9.5 °C 1014.4 hPa NE 1.6 km/h 3.2 km/h 73% 0 mm 0 W/m2
22:36 14.3 °C 9.6 °C 1014.4 hPa NE 1.6 km/h 3.2 km/h 73% 0 mm 0 W/m2
22:42 14.4 °C 9.8 °C 1014.1 hPa Calm     74% 0 mm 0 W/m2
22:48 14.4 °C 9.8 °C 1014.1 hPa Calm   1.6 km/h 74% 0 mm 0 W/m2
22:54 14.4 °C 9.8 °C 1014.1 hPa Calm     74% 0 mm 0 W/m2
22:59 14.4 °C 9.6 °C 1014.1 hPa Calm     73% 0 mm 0 W/m2
23:06 14.3 °C 9.6 °C 1014.4 hPa Calm     73% 0 mm 0 W/m2
23:12 14.4 °C 9.8 °C 1014.1 hPa Calm   3.2 km/h 74% 0 mm 0 W/m2
23:18 14.4 °C 9.6 °C 1014.8 hPa Calm   3.2 km/h 73% 0 mm 0 W/m2
23:24 14.3 °C 9.8 °C 1014.1 hPa Calm     74% 0 mm 0 W/m2
23:30 14.3 °C 9.9 °C 1014.1 hPa Calm     75% 0 mm 0 W/m2
23:36 14.2 °C 9.6 °C 1013.8 hPa Calm   1.6 km/h 74% 0 mm 0 W/m2
23:42 14.1 °C 9.7 °C 1013.4 hPa Calm     75% 0 mm 0 W/m2
23:48 13.9 °C 10 °C 1013.4 hPa Calm     77% 0 mm 0 W/m2
23:54 13.9 °C 10.1 °C 1013.4 hPa Calm   1.6 km/h 78% 0 mm 0 W/m2
Country Meadow, Clay, NY, USA
Compliments of Weather Underground - 2 mb